sensor_id;sensor_type;location;lat;lon;timestamp;P1;P2;P0
46381;PMS5003;66809;52.974;-2.514;2023-10-13T00:01:40;21.833333333333332;20.483333333333334;
46381;PMS5003;66809;52.974;-2.514;2023-10-13T00:03:40;21.366666666666667;20.083333333333332;
46381;PMS5003;66809;52.974;-2.514;2023-10-13T00:05:41;21.0;19.75;
46381;PMS5003;66809;52.974;-2.514;2023-10-13T00:07:40;20.65;19.45;
46381;PMS5003;66809;52.974;-2.514;2023-10-13T00:09:39;20.283333333333335;19.133333333333333;
46381;PMS5003;66809;52.974;-2.514;2023-10-13T00:11:41;20.116666666666667;19.016666666666666;
46381;PMS5003;66809;52.974;-2.514;2023-10-13T00:13:40;19.7;18.65;
46381;PMS5003;66809;52.974;-2.514;2023-10-13T00:15:40;19.3;18.266666666666666;
46381;PMS5003;66809;52.974;-2.514;2023-10-13T00:17:40;18.916666666666668;17.9;
46381;PMS5003;66809;52.974;-2.514;2023-10-13T00:19:40;18.633333333333333;17.616666666666667;
46381;PMS5003;66809;52.974;-2.514;2023-10-13T00:21:39;18.383333333333333;17.433333333333334;
46381;PMS5003;66809;52.974;-2.514;2023-10-13T00:23:40;18.1;17.183333333333334;
46381;PMS5003;66809;52.974;-2.514;2023-10-13T00:25:39;17.866666666666667;16.95;
46381;PMS5003;66809;52.974;-2.514;2023-10-13T00:27:40;17.666666666666668;16.766666666666666;
46381;PMS5003;66809;52.974;-2.514;2023-10-13T00:29:40;17.45;16.516666666666666;
46381;PMS5003;66809;52.974;-2.514;2023-10-13T00:31:40;17.183333333333334;16.25;
46381;PMS5003;66809;52.974;-2.514;2023-10-13T00:33:40;16.95;16.05;
46381;PMS5003;66809;52.974;-2.514;2023-10-13T00:35:42;16.666666666666668;15.8;
46381;PMS5003;66809;52.974;-2.514;2023-10-13T00:37:40;16.483333333333334;15.616666666666667;
46381;PMS5003;66809;52.974;-2.514;2023-10-13T00:39:39;16.266666666666666;15.383333333333333;
46381;PMS5003;66809;52.974;-2.514;2023-10-13T00:41:40;16.066666666666666;15.116666666666667;
46381;PMS5003;66809;52.974;-2.514;2023-10-13T00:43:44;15.85;14.916666666666666;
46381;PMS5003;66809;52.974;-2.514;2023-10-13T00:45:39;15.733333333333333;14.8;
46381;PMS5003;66809;52.974;-2.514;2023-10-13T00:47:40;15.516666666666667;14.633333333333333;
46381;PMS5003;66809;52.974;-2.514;2023-10-13T00:49:40;15.3;14.466666666666667;
46381;PMS5003;66809;52.974;-2.514;2023-10-13T00:51:40;15.016666666666667;14.216666666666667;
46381;PMS5003;66809;52.974;-2.514;2023-10-13T00:53:39;14.783333333333333;14.016666666666667;
46381;PMS5003;66809;52.974;-2.514;2023-10-13T00:55:40;14.7;13.933333333333334;
46381;PMS5003;66809;52.974;-2.514;2023-10-13T00:57:40;14.616666666666667;13.85;
46381;PMS5003;66809;52.974;-2.514;2023-10-13T00:59:40;14.2;13.466666666666667;
46381;PMS5003;66809;52.974;-2.514;2023-10-13T01:01:40;14.0;13.283333333333333;
46381;PMS5003;66809;52.974;-2.514;2023-10-13T01:03:40;13.816666666666666;13.083333333333334;
46381;PMS5003;66809;52.974;-2.514;2023-10-13T01:05:40;13.65;12.933333333333334;
46381;PMS5003;66809;52.974;-2.514;2023-10-13T01:07:40;13.5;12.766666666666667;
46381;PMS5003;66809;52.974;-2.514;2023-10-13T01:09:40;13.416666666666666;12.666666666666666;
46381;PMS5003;66809;52.974;-2.514;2023-10-13T01:11:40;13.2;12.466666666666667;
46381;PMS5003;66809;52.974;-2.514;2023-10-13T01:13:40;13.083333333333334;12.4;
46381;PMS5003;66809;52.974;-2.514;2023-10-13T01:15:40;13.0;12.316666666666666;
46381;PMS5003;66809;52.974;-2.514;2023-10-13T01:17:39;12.866666666666667;12.2;
46381;PMS5003;66809;52.974;-2.514;2023-10-13T01:19:40;12.7;12.083333333333334;
46381;PMS5003;66809;52.974;-2.514;2023-10-13T01:21:40;12.4;11.766666666666667;
46381;PMS5003;66809;52.974;-2.514;2023-10-13T01:23:39;12.133333333333333;11.466666666666667;
46381;PMS5003;66809;52.974;-2.514;2023-10-13T01:25:40;11.9;11.25;
46381;PMS5003;66809;52.974;-2.514;2023-10-13T01:27:40;11.616666666666667;10.966666666666667;
46381;PMS5003;66809;52.974;-2.514;2023-10-13T01:29:40;11.433333333333334;10.8;
46381;PMS5003;66809;52.974;-2.514;2023-10-13T01:31:40;11.283333333333333;10.65;
46381;PMS5003;66809;52.974;-2.514;2023-10-13T01:33:40;11.05;10.383333333333333;
46381;PMS5003;66809;52.974;-2.514;2023-10-13T01:35:40;10.85;10.233333333333333;
46381;PMS5003;66809;52.974;-2.514;2023-10-13T01:37:40;10.65;10.033333333333333;
46381;PMS5003;66809;52.974;-2.514;2023-10-13T01:39:40;10.366666666666667;9.783333333333333;
46381;PMS5003;66809;52.974;-2.514;2023-10-13T01:41:39;10.116666666666667;9.6;
46381;PMS5003;66809;52.974;-2.514;2023-10-13T01:43:40;9.916666666666666;9.416666666666666;
46381;PMS5003;66809;52.974;-2.514;2023-10-13T01:45:40;9.7;9.166666666666666;
46381;PMS5003;66809;52.974;-2.514;2023-10-13T01:47:39;9.466666666666667;8.95;
46381;PMS5003;66809;52.974;-2.514;2023-10-13T01:49:40;9.25;8.75;
46381;PMS5003;66809;52.974;-2.514;2023-10-13T01:51:40;9.05;8.55;
46381;PMS5003;66809;52.974;-2.514;2023-10-13T01:53:40;8.883333333333333;8.35;
46381;PMS5003;66809;52.974;-2.514;2023-10-13T01:55:40;8.566666666666666;8.066666666666666;
46381;PMS5003;66809;52.974;-2.514;2023-10-13T01:57:40;8.283333333333333;7.8;
46381;PMS5003;66809;52.974;-2.514;2023-10-13T01:59:40;8.1;7.6;
46381;PMS5003;66809;52.974;-2.514;2023-10-13T02:01:40;7.9;7.416666666666667;
46381;PMS5003;66809;52.974;-2.514;2023-10-13T02:03:40;7.683333333333334;7.216666666666667;
46381;PMS5003;66809;52.974;-2.514;2023-10-13T02:05:40;7.466666666666667;7.0;
46381;PMS5003;66809;52.974;-2.514;2023-10-13T02:07:40;7.183333333333334;6.766666666666667;
46381;PMS5003;66809;52.974;-2.514;2023-10-13T02:09:40;6.966666666666667;6.566666666666666;
46381;PMS5003;66809;52.974;-2.514;2023-10-13T02:11:39;6.8;6.366666666666666;
46381;PMS5003;66809;52.974;-2.514;2023-10-13T02:13:40;6.55;6.083333333333333;
46381;PMS5003;66809;52.974;-2.514;2023-10-13T02:15:40;6.316666666666666;5.85;
46381;PMS5003;66809;52.974;-2.514;2023-10-13T02:17:40;6.1;5.633333333333334;
46381;PMS5003;66809;52.974;-2.514;2023-10-13T02:19:40;5.966666666666667;5.45;
46381;PMS5003;66809;52.974;-2.514;2023-10-13T02:21:39;5.866666666666666;5.366666666666666;
46381;PMS5003;66809;52.974;-2.514;2023-10-13T02:23:40;5.666666666666667;5.2;
46381;PMS5003;66809;52.974;-2.514;2023-10-13T02:25:40;5.483333333333333;5.0;
46381;PMS5003;66809;52.974;-2.514;2023-10-13T02:27:40;5.266666666666667;4.8;
46381;PMS5003;66809;52.974;-2.514;2023-10-13T02:29:40;5.1;4.616666666666666;
46381;PMS5003;66809;52.974;-2.514;2023-10-13T02:31:40;4.966666666666667;4.466666666666667;
46381;PMS5003;66809;52.974;-2.514;2023-10-13T02:33:40;4.766666666666667;4.266666666666667;
46381;PMS5003;66809;52.974;-2.514;2023-10-13T02:35:39;4.583333333333333;4.083333333333333;
46381;PMS5003;66809;52.974;-2.514;2023-10-13T02:37:40;4.433333333333334;3.966666666666667;
46381;PMS5003;66809;52.974;-2.514;2023-10-13T02:39:40;4.283333333333333;3.8333333333333335;
46381;PMS5003;66809;52.974;-2.514;2023-10-13T02:41:40;4.1;3.683333333333333;
46381;PMS5003;66809;52.974;-2.514;2023-10-13T02:43:39;4.016666666666667;3.6;
46381;PMS5003;66809;52.974;-2.514;2023-10-13T02:45:40;3.8333333333333335;3.466666666666667;
46381;PMS5003;66809;52.974;-2.514;2023-10-13T02:47:40;3.7;3.316666666666667;
46381;PMS5003;66809;52.974;-2.514;2023-10-13T02:49:40;3.55;3.1666666666666665;
46381;PMS5003;66809;52.974;-2.514;2023-10-13T02:51:40;3.4;3.033333333333333;
46381;PMS5003;66809;52.974;-2.514;2023-10-13T02:53:40;3.2333333333333334;2.9;
46381;PMS5003;66809;52.974;-2.514;2023-10-13T02:55:48;3.183333333333333;2.816666666666667;
46381;PMS5003;66809;52.974;-2.514;2023-10-13T02:57:40;3.033333333333333;2.6666666666666665;
46381;PMS5003;66809;52.974;-2.514;2023-10-13T02:59:40;2.9166666666666665;2.566666666666667;
46381;PMS5003;66809;52.974;-2.514;2023-10-13T03:01:40;2.85;2.466666666666667;
46381;PMS5003;66809;52.974;-2.514;2023-10-13T03:03:40;2.7666666666666666;2.3833333333333333;
46381;PMS5003;66809;52.974;-2.514;2023-10-13T03:05:40;2.6;2.2333333333333334;
46381;PMS5003;66809;52.974;-2.514;2023-10-13T03:07:40;2.5166666666666666;2.1333333333333333;
46381;PMS5003;66809;52.974;-2.514;2023-10-13T03:09:40;2.3833333333333333;2.0;
46381;PMS5003;66809;52.974;-2.514;2023-10-13T03:11:40;2.2666666666666666;1.9333333333333333;
46381;PMS5003;66809;52.974;-2.514;2023-10-13T03:13:40;2.1666666666666665;1.8666666666666667;
46381;PMS5003;66809;52.974;-2.514;2023-10-13T03:15:40;2.1333333333333333;1.8333333333333333;
46381;PMS5003;66809;52.974;-2.514;2023-10-13T03:17:40;2.066666666666667;1.7666666666666666;
46381;PMS5003;66809;52.974;-2.514;2023-10-13T03:19:42;1.95;1.6833333333333333;
46381;PMS5003;66809;52.974;-2.514;2023-10-13T03:21:40;1.8166666666666667;1.5666666666666667;
46381;PMS5003;66809;52.974;-2.514;2023-10-13T03:23:40;1.7833333333333334;1.5333333333333334;
46381;PMS5003;66809;52.974;-2.514;2023-10-13T03:25:40;1.7166666666666666;1.4833333333333334;
46381;PMS5003;66809;52.974;-2.514;2023-10-13T03:27:40;1.6666666666666667;1.4333333333333333;
46381;PMS5003;66809;52.974;-2.514;2023-10-13T03:29:40;1.5833333333333333;1.4;
46381;PMS5003;66809;52.974;-2.514;2023-10-13T03:31:39;1.5333333333333334;1.3666666666666667;
46381;PMS5003;66809;52.974;-2.514;2023-10-13T03:33:40;1.4833333333333334;1.35;
46381;PMS5003;66809;52.974;-2.514;2023-10-13T03:35:40;1.45;1.3166666666666667;
46381;PMS5003;66809;52.974;-2.514;2023-10-13T03:37:40;1.4833333333333334;1.3;
46381;PMS5003;66809;52.974;-2.514;2023-10-13T03:39:40;1.5333333333333334;1.3166666666666667;
46381;PMS5003;66809;52.974;-2.514;2023-10-13T03:41:39;1.55;1.3166666666666667;
46381;PMS5003;66809;52.974;-2.514;2023-10-13T03:43:40;1.55;1.3166666666666667;
46381;PMS5003;66809;52.974;-2.514;2023-10-13T03:45:40;1.5833333333333333;1.3333333333333333;
46381;PMS5003;66809;52.974;-2.514;2023-10-13T03:47:40;1.5666666666666667;1.3333333333333333;
46381;PMS5003;66809;52.974;-2.514;2023-10-13T03:49:40;1.6;1.35;
46381;PMS5003;66809;52.974;-2.514;2023-10-13T03:51:40;1.6333333333333333;1.3833333333333333;
46381;PMS5003;66809;52.974;-2.514;2023-10-13T03:53:40;1.65;1.4;
46381;PMS5003;66809;52.974;-2.514;2023-10-13T03:55:40;1.6;1.3833333333333333;
46381;PMS5003;66809;52.974;-2.514;2023-10-13T03:57:40;1.6333333333333333;1.4166666666666667;
46381;PMS5003;66809;52.974;-2.514;2023-10-13T03:59:40;1.65;1.4;
46381;PMS5003;66809;52.974;-2.514;2023-10-13T04:01:40;1.6333333333333333;1.4166666666666667;
46381;PMS5003;66809;52.974;-2.514;2023-10-13T04:03:40;1.6333333333333333;1.4333333333333333;
46381;PMS5003;66809;52.974;-2.514;2023-10-13T04:05:40;1.6666666666666667;1.4166666666666667;
46381;PMS5003;66809;52.974;-2.514;2023-10-13T04:07:40;1.6833333333333333;1.4333333333333333;
46381;PMS5003;66809;52.974;-2.514;2023-10-13T04:09:40;1.7;1.4333333333333333;
46381;PMS5003;66809;52.974;-2.514;2023-10-13T04:11:40;1.7333333333333334;1.45;
46381;PMS5003;66809;52.974;-2.514;2023-10-13T04:13:39;1.7333333333333334;1.4333333333333333;
46381;PMS5003;66809;52.974;-2.514;2023-10-13T04:15:42;1.7333333333333334;1.4333333333333333;
46381;PMS5003;66809;52.974;-2.514;2023-10-13T04:17:40;1.75;1.45;
46381;PMS5003;66809;52.974;-2.514;2023-10-13T04:19:40;1.8166666666666667;1.5;
46381;PMS5003;66809;52.974;-2.514;2023-10-13T04:21:40;1.8666666666666667;1.5166666666666666;
46381;PMS5003;66809;52.974;-2.514;2023-10-13T04:23:39;1.9333333333333333;1.5666666666666667;
46381;PMS5003;66809;52.974;-2.514;2023-10-13T04:25:40;2.05;1.6166666666666667;
46381;PMS5003;66809;52.974;-2.514;2023-10-13T04:27:40;2.1166666666666667;1.6666666666666667;
46381;PMS5003;66809;52.974;-2.514;2023-10-13T04:29:40;2.1666666666666665;1.7;
46381;PMS5003;66809;52.974;-2.514;2023-10-13T04:31:40;2.25;1.75;
46381;PMS5003;66809;52.974;-2.514;2023-10-13T04:33:40;2.3666666666666667;1.8333333333333333;
46381;PMS5003;66809;52.974;-2.514;2023-10-13T04:35:39;2.4833333333333334;1.95;
46381;PMS5003;66809;52.974;-2.514;2023-10-13T04:37:40;2.45;1.9666666666666666;
46381;PMS5003;66809;52.974;-2.514;2023-10-13T04:39:40;2.433333333333333;1.9833333333333334;
46381;PMS5003;66809;52.974;-2.514;2023-10-13T04:41:40;2.5166666666666666;2.05;
46381;PMS5003;66809;52.974;-2.514;2023-10-13T04:43:40;2.566666666666667;2.0833333333333335;
46381;PMS5003;66809;52.974;-2.514;2023-10-13T04:45:39;2.6333333333333333;2.1;
46381;PMS5003;66809;52.974;-2.514;2023-10-13T04:47:40;2.683333333333333;2.1;
46381;PMS5003;66809;52.974;-2.514;2023-10-13T04:49:40;2.716666666666667;2.1333333333333333;
46381;PMS5003;66809;52.974;-2.514;2023-10-13T04:51:40;2.8;2.2;
46381;PMS5003;66809;52.974;-2.514;2023-10-13T04:53:40;2.9166666666666665;2.25;
46381;PMS5003;66809;52.974;-2.514;2023-10-13T04:55:40;3.0166666666666666;2.35;
46381;PMS5003;66809;52.974;-2.514;2023-10-13T04:57:39;3.1;2.433333333333333;
46381;PMS5003;66809;52.974;-2.514;2023-10-13T04:59:40;3.183333333333333;2.533333333333333;
46381;PMS5003;66809;52.974;-2.514;2023-10-13T05:01:40;3.283333333333333;2.6;
46381;PMS5003;66809;52.974;-2.514;2023-10-13T05:03:40;3.4166666666666665;2.6666666666666665;
46381;PMS5003;66809;52.974;-2.514;2023-10-13T05:05:42;3.433333333333333;2.7333333333333334;
46381;PMS5003;66809;52.974;-2.514;2023-10-13T05:07:40;3.5166666666666666;2.8;
46381;PMS5003;66809;52.974;-2.514;2023-10-13T05:09:40;3.6;2.9;
46381;PMS5003;66809;52.974;-2.514;2023-10-13T05:11:40;3.6666666666666665;2.9833333333333334;
46381;PMS5003;66809;52.974;-2.514;2023-10-13T05:13:40;3.7333333333333334;3.05;
46381;PMS5003;66809;52.974;-2.514;2023-10-13T05:15:44;3.8;3.0833333333333335;
46381;PMS5003;66809;52.974;-2.514;2023-10-13T05:17:40;3.9;3.15;
46381;PMS5003;66809;52.974;-2.514;2023-10-13T05:19:40;3.966666666666667;3.216666666666667;
46381;PMS5003;66809;52.974;-2.514;2023-10-13T05:21:40;4.083333333333333;3.35;
46381;PMS5003;66809;52.974;-2.514;2023-10-13T05:23:39;4.283333333333333;3.55;
46381;PMS5003;66809;52.974;-2.514;2023-10-13T05:25:40;4.333333333333333;3.6666666666666665;
46381;PMS5003;66809;52.974;-2.514;2023-10-13T05:27:40;4.433333333333334;3.7666666666666666;
46381;PMS5003;66809;52.974;-2.514;2023-10-13T05:29:40;4.55;3.8666666666666667;
46381;PMS5003;66809;52.974;-2.514;2023-10-13T05:31:40;4.633333333333334;3.9833333333333334;
46381;PMS5003;66809;52.974;-2.514;2023-10-13T05:33:40;4.75;4.083333333333333;
46381;PMS5003;66809;52.974;-2.514;2023-10-13T05:35:40;4.816666666666666;4.133333333333334;
46381;PMS5003;66809;52.974;-2.514;2023-10-13T05:37:40;4.933333333333334;4.233333333333333;
46381;PMS5003;66809;52.974;-2.514;2023-10-13T05:39:41;5.033333333333333;4.3;
46381;PMS5003;66809;52.974;-2.514;2023-10-13T05:41:40;5.05;4.3;
46381;PMS5003;66809;52.974;-2.514;2023-10-13T05:43:40;5.083333333333333;4.3;
46381;PMS5003;66809;52.974;-2.514;2023-10-13T05:45:40;5.133333333333334;4.383333333333334;
46381;PMS5003;66809;52.974;-2.514;2023-10-13T05:47:40;5.233333333333333;4.5;
46381;PMS5003;66809;52.974;-2.514;2023-10-13T05:49:40;5.25;4.533333333333333;
46381;PMS5003;66809;52.974;-2.514;2023-10-13T05:51:40;5.233333333333333;4.533333333333333;
46381;PMS5003;66809;52.974;-2.514;2023-10-13T05:53:40;5.25;4.55;
46381;PMS5003;66809;52.974;-2.514;2023-10-13T05:55:40;5.233333333333333;4.533333333333333;
46381;PMS5003;66809;52.974;-2.514;2023-10-13T05:57:39;5.316666666666666;4.583333333333333;
46381;PMS5003;66809;52.974;-2.514;2023-10-13T05:59:40;5.466666666666667;4.7;
46381;PMS5003;66809;52.974;-2.514;2023-10-13T06:01:40;5.466666666666667;4.733333333333333;
46381;PMS5003;66809;52.974;-2.514;2023-10-13T06:03:40;5.4;4.733333333333333;
46381;PMS5003;66809;52.974;-2.514;2023-10-13T06:05:40;5.433333333333334;4.75;
46381;PMS5003;66809;52.974;-2.514;2023-10-13T06:07:40;5.4;4.75;
46381;PMS5003;66809;52.974;-2.514;2023-10-13T06:09:40;5.45;4.75;
46381;PMS5003;66809;52.974;-2.514;2023-10-13T06:11:40;5.483333333333333;4.75;
46381;PMS5003;66809;52.974;-2.514;2023-10-13T06:13:39;5.55;4.8;
46381;PMS5003;66809;52.974;-2.514;2023-10-13T06:15:40;5.583333333333333;4.866666666666666;
46381;PMS5003;66809;52.974;-2.514;2023-10-13T06:17:40;5.6;4.866666666666666;
46381;PMS5003;66809;52.974;-2.514;2023-10-13T06:19:40;5.566666666666666;4.866666666666666;
46381;PMS5003;66809;52.974;-2.514;2023-10-13T06:21:40;5.566666666666666;4.85;
46381;PMS5003;66809;52.974;-2.514;2023-10-13T06:23:40;5.433333333333334;4.716666666666667;
46381;PMS5003;66809;52.974;-2.514;2023-10-13T06:25:39;5.35;4.616666666666666;
46381;PMS5003;66809;52.974;-2.514;2023-10-13T06:27:40;5.383333333333334;4.6;
46381;PMS5003;66809;52.974;-2.514;2023-10-13T06:29:40;5.35;4.6;
46381;PMS5003;66809;52.974;-2.514;2023-10-13T06:31:39;5.433333333333334;4.633333333333334;
46381;PMS5003;66809;52.974;-2.514;2023-10-13T06:33:40;5.283333333333333;4.533333333333333;
46381;PMS5003;66809;52.974;-2.514;2023-10-13T06:35:40;5.3;4.533333333333333;
46381;PMS5003;66809;52.974;-2.514;2023-10-13T06:37:39;5.283333333333333;4.533333333333333;
46381;PMS5003;66809;52.974;-2.514;2023-10-13T06:39:40;5.3;4.533333333333333;
46381;PMS5003;66809;52.974;-2.514;2023-10-13T06:41:40;5.3;4.533333333333333;
46381;PMS5003;66809;52.974;-2.514;2023-10-13T06:43:40;5.25;4.483333333333333;
46381;PMS5003;66809;52.974;-2.514;2023-10-13T06:45:40;5.2;4.416666666666667;
46381;PMS5003;66809;52.974;-2.514;2023-10-13T06:47:40;5.15;4.366666666666666;
46381;PMS5003;66809;52.974;-2.514;2023-10-13T06:49:40;5.183333333333334;4.366666666666666;
46381;PMS5003;66809;52.974;-2.514;2023-10-13T06:51:39;5.283333333333333;4.4;
46381;PMS5003;66809;52.974;-2.514;2023-10-13T06:53:40;5.316666666666666;4.433333333333334;
46381;PMS5003;66809;52.974;-2.514;2023-10-13T06:55:40;5.333333333333333;4.45;
46381;PMS5003;66809;52.974;-2.514;2023-10-13T06:57:40;5.3;4.4;
46381;PMS5003;66809;52.974;-2.514;2023-10-13T06:59:40;5.133333333333334;4.283333333333333;
46381;PMS5003;66809;52.974;-2.514;2023-10-13T07:01:39;5.133333333333334;4.283333333333333;
46381;PMS5003;66809;52.974;-2.514;2023-10-13T07:03:40;5.066666666666666;4.216666666666667;
46381;PMS5003;66809;52.974;-2.514;2023-10-13T07:05:40;5.15;4.266666666666667;
46381;PMS5003;66809;52.974;-2.514;2023-10-13T07:07:40;5.216666666666667;4.3;
46381;PMS5003;66809;52.974;-2.514;2023-10-13T07:09:40;5.2;4.283333333333333;
46381;PMS5003;66809;52.974;-2.514;2023-10-13T07:11:39;5.133333333333334;4.25;
46381;PMS5003;66809;52.974;-2.514;2023-10-13T07:13:40;5.066666666666666;4.166666666666667;
46381;PMS5003;66809;52.974;-2.514;2023-10-13T07:15:40;4.983333333333333;4.083333333333333;
46381;PMS5003;66809;52.974;-2.514;2023-10-13T07:17:40;4.95;4.066666666666666;
46381;PMS5003;66809;52.974;-2.514;2023-10-13T07:19:39;4.966666666666667;4.033333333333333;
46381;PMS5003;66809;52.974;-2.514;2023-10-13T07:21:40;4.9;4.0;
46381;PMS5003;66809;52.974;-2.514;2023-10-13T07:23:40;4.816666666666666;3.933333333333333;
46381;PMS5003;66809;52.974;-2.514;2023-10-13T07:25:40;4.816666666666666;3.95;
46381;PMS5003;66809;52.974;-2.514;2023-10-13T07:27:40;4.716666666666667;3.9166666666666665;
46381;PMS5003;66809;52.974;-2.514;2023-10-13T07:29:39;4.683333333333334;3.8833333333333333;
46381;PMS5003;66809;52.974;-2.514;2023-10-13T07:31:40;4.55;3.783333333333333;
46381;PMS5003;66809;52.974;-2.514;2023-10-13T07:33:40;4.6;3.8333333333333335;
46381;PMS5003;66809;52.974;-2.514;2023-10-13T07:35:40;4.5;3.7666666666666666;
46381;PMS5003;66809;52.974;-2.514;2023-10-13T07:37:40;4.466666666666667;3.716666666666667;
46381;PMS5003;66809;52.974;-2.514;2023-10-13T07:39:40;4.45;3.75;
46381;PMS5003;66809;52.974;-2.514;2023-10-13T07:41:40;4.35;3.7;
46381;PMS5003;66809;52.974;-2.514;2023-10-13T07:43:40;4.366666666666666;3.7666666666666666;
46381;PMS5003;66809;52.974;-2.514;2023-10-13T07:45:40;4.35;3.8;
46381;PMS5003;66809;52.974;-2.514;2023-10-13T07:47:39;4.266666666666667;3.75;
46381;PMS5003;66809;52.974;-2.514;2023-10-13T07:49:40;4.25;3.75;
46381;PMS5003;66809;52.974;-2.514;2023-10-13T07:51:40;4.216666666666667;3.7333333333333334;
46381;PMS5003;66809;52.974;-2.514;2023-10-13T07:53:40;4.116666666666666;3.65;
46381;PMS5003;66809;52.974;-2.514;2023-10-13T07:55:39;4.1;3.6;
46381;PMS5003;66809;52.974;-2.514;2023-10-13T07:57:40;4.1;3.6;
46381;PMS5003;66809;52.974;-2.514;2023-10-13T07:59:40;4.066666666666666;3.566666666666667;
46381;PMS5003;66809;52.974;-2.514;2023-10-13T08:01:39;4.033333333333333;3.533333333333333;
46381;PMS5003;66809;52.974;-2.514;2023-10-13T08:03:40;4.083333333333333;3.5833333333333335;
46381;PMS5003;66809;52.974;-2.514;2023-10-13T08:05:40;4.033333333333333;3.5833333333333335;
46381;PMS5003;66809;52.974;-2.514;2023-10-13T08:07:40;3.95;3.5166666666666666;
46381;PMS5003;66809;52.974;-2.514;2023-10-13T08:09:40;3.8833333333333333;3.5;
46381;PMS5003;66809;52.974;-2.514;2023-10-13T08:11:40;3.8833333333333333;3.466666666666667;
46381;PMS5003;66809;52.974;-2.514;2023-10-13T08:13:40;3.9;3.5;
46381;PMS5003;66809;52.974;-2.514;2023-10-13T08:15:40;3.9166666666666665;3.4833333333333334;
46381;PMS5003;66809;52.974;-2.514;2023-10-13T08:17:40;3.9166666666666665;3.5;
46381;PMS5003;66809;52.974;-2.514;2023-10-13T08:19:40;3.8;3.433333333333333;
46381;PMS5003;66809;52.974;-2.514;2023-10-13T08:21:40;3.716666666666667;3.35;
46381;PMS5003;66809;52.974;-2.514;2023-10-13T08:23:40;3.7333333333333334;3.3333333333333335;
46381;PMS5003;66809;52.974;-2.514;2023-10-13T08:25:40;3.683333333333333;3.283333333333333;
46381;PMS5003;66809;52.974;-2.514;2023-10-13T08:27:40;3.6333333333333333;3.2333333333333334;
46381;PMS5003;66809;52.974;-2.514;2023-10-13T08:29:40;3.533333333333333;3.1333333333333333;
46381;PMS5003;66809;52.974;-2.514;2023-10-13T08:31:40;3.4166666666666665;3.033333333333333;
46381;PMS5003;66809;52.974;-2.514;2023-10-13T08:33:40;3.3333333333333335;2.95;
46381;PMS5003;66809;52.974;-2.514;2023-10-13T08:35:50;3.2666666666666666;2.8666666666666667;
46381;PMS5003;66809;52.974;-2.514;2023-10-13T08:37:40;3.183333333333333;2.8;
46381;PMS5003;66809;52.974;-2.514;2023-10-13T08:39:40;3.033333333333333;2.65;
46381;PMS5003;66809;52.974;-2.514;2023-10-13T08:41:40;2.9833333333333334;2.6;
46381;PMS5003;66809;52.974;-2.514;2023-10-13T08:43:40;2.85;2.466666666666667;
46381;PMS5003;66809;52.974;-2.514;2023-10-13T08:45:41;2.75;2.3666666666666667;
46381;PMS5003;66809;52.974;-2.514;2023-10-13T08:47:40;2.683333333333333;2.3;
46381;PMS5003;66809;52.974;-2.514;2023-10-13T08:49:40;2.566666666666667;2.2;
46381;PMS5003;66809;52.974;-2.514;2023-10-13T08:51:40;2.4166666666666665;2.0833333333333335;
46381;PMS5003;66809;52.974;-2.514;2023-10-13T08:53:40;2.3;2.0166666666666666;
46381;PMS5003;66809;52.974;-2.514;2023-10-13T08:55:40;2.25;1.9666666666666666;
46381;PMS5003;66809;52.974;-2.514;2023-10-13T08:57:40;2.1;1.8666666666666667;
46381;PMS5003;66809;52.974;-2.514;2023-10-13T08:59:39;2.066666666666667;1.8333333333333333;
46381;PMS5003;66809;52.974;-2.514;2023-10-13T09:01:40;2.0;1.75;
46381;PMS5003;66809;52.974;-2.514;2023-10-13T09:03:40;1.9;1.65;
46381;PMS5003;66809;52.974;-2.514;2023-10-13T09:05:40;1.8333333333333333;1.5666666666666667;
46381;PMS5003;66809;52.974;-2.514;2023-10-13T09:07:44;1.7666666666666666;1.5166666666666666;
46381;PMS5003;66809;52.974;-2.514;2023-10-13T09:09:48;1.7;1.45;
46381;PMS5003;66809;52.974;-2.514;2023-10-13T09:11:40;1.5833333333333333;1.3666666666666667;
46381;PMS5003;66809;52.974;-2.514;2023-10-13T09:13:40;1.45;1.2666666666666666;
46381;PMS5003;66809;52.974;-2.514;2023-10-13T09:15:39;1.4;1.2333333333333334;
46381;PMS5003;66809;52.974;-2.514;2023-10-13T09:17:41;1.2833333333333334;1.1333333333333333;
46381;PMS5003;66809;52.974;-2.514;2023-10-13T09:19:44;1.3;1.1166666666666667;
46381;PMS5003;66809;52.974;-2.514;2023-10-13T09:21:40;1.3166666666666667;1.1333333333333333;
46381;PMS5003;66809;52.974;-2.514;2023-10-13T09:23:45;1.3666666666666667;1.2166666666666666;
46381;PMS5003;66809;52.974;-2.514;2023-10-13T09:25:40;1.7666666666666666;1.6166666666666667;
46381;PMS5003;66809;52.974;-2.514;2023-10-13T09:27:40;1.95;1.8;
46381;PMS5003;66809;52.974;-2.514;2023-10-13T09:29:40;2.15;1.9833333333333334;
46381;PMS5003;66809;52.974;-2.514;2023-10-13T09:31:40;2.316666666666667;2.15;
46381;PMS5003;66809;52.974;-2.514;2023-10-13T09:33:40;2.4;2.2333333333333334;
46381;PMS5003;66809;52.974;-2.514;2023-10-13T09:35:39;2.8666666666666667;2.716666666666667;
46381;PMS5003;66809;52.974;-2.514;2023-10-13T09:37:40;3.533333333333333;3.316666666666667;
46381;PMS5003;66809;52.974;-2.514;2023-10-13T09:39:40;3.8333333333333335;3.5833333333333335;